Home > Products > Valid Products > TAF

000
FTUS41 KRLX 311500 AAA
TAFEKN
TAF AMD
KEKN 311515Z 3115/0112 23013G22KT P6SM SCT080
     FM312100 27017G30KT 6SM -SHRA BKN040
     FM312300 30015G25KT P6SM BKN025
     FM010200 31011G17KT P6SM BKN025
     FM010400 31009KT P6SM SCT030=



000
FTUS41 KRLX 311500 AAA
TAFCKB
TAF AMD
KCKB 311515Z 3115/0112 22013G27KT P6SM BKN080
     FM311900 27017G31KT P6SM BKN060
     FM312300 31013G21KT P6SM BKN035
     FM010200 32008KT P6SM BKN040=



000
FTUS41 KRLX 311500 AAA
TAFBKW
TAF AMD
KBKW 311515Z 3115/0112 24015G27KT P6SM SCT100
     FM311800 24017G30KT P6SM BKN080
     FM312000 26019G31KT P6SM BKN060
     FM312300 30017G27KT P6SM BKN050
     FM010100 31015G22KT P6SM SCT035
     FM010500 33010KT P6SM SCT040=



000
FTUS41 KRLX 311500 AAA
TAFHTS
TAF AMD
KHTS 311514Z 3115/0112 20014G28KT P6SM SCT120
     FM311700 24015G30KT P6SM SCT080
     FM312000 28016G28KT P6SM BKN060
     FM010000 32010G18KT P6SM SCT045
     FM010200 36008KT P6SM SCT035=



000
FTUS41 KRLX 311500 AAA
TAFCRW
TAF AMD
KCRW 311514Z 3115/0112 22012G26KT P6SM SCT100
     FM311900 25017G32KT P6SM BKN070
     FM312200 29016G29KT P6SM BKN050
     FM312300 31014G23KT P6SM SCT050
     FM010200 34009KT P6SM SCT035=



000
FTUS41 KRLX 311500 AAA
TAFPKB
TAF AMD
KPKB 311514Z 3115/0112 22012G26KT P6SM BKN060
     FM311900 27014G28KT P6SM BKN045
     FM312200 31013G21KT P6SM BKN035
     FM312300 32011G19KT P6SM SCT035
     FM010300 33008KT P6SM SCT040=



000
FTUS41 KRLX 311100
TAFBKW
TAF
KBKW 311120Z 3112/0112 23008KT P6SM SCT150
     FM311500 24012G19KT P6SM SCT100
     FM311800 24017G30KT P6SM BKN080
     FM312000 26019G31KT P6SM BKN060
     FM312300 30017G27KT P6SM BKN050
     FM010100 31015G22KT P6SM SCT035
     FM010500 33010KT P6SM SCT040=



000
FTUS41 KRLX 311100
TAFEKN
TAF
KEKN 311120Z 3112/0112 23008KT P6SM SCT100
     FM311500 23013G22KT P6SM SCT080
     FM312100 27017G30KT 6SM -SHRA BKN040
     FM312300 30015G25KT P6SM BKN025
     FM010200 31011G17KT P6SM BKN025
     FM010400 31009KT P6SM SCT030=



000
FTUS41 KRLX 311100
TAFHTS
TAF
KHTS 311120Z 3112/0112 20008KT P6SM SCT120
     FM311700 24015G26KT P6SM SCT080
     FM312000 28016G28KT P6SM BKN060
     FM010000 32010G18KT P6SM SCT045
     FM010200 36008KT P6SM SCT035=



000
FTUS41 KRLX 311100
TAFCRW
TAF
KCRW 311120Z 3112/0112 20008KT P6SM SCT120
     FM311500 22012G20KT P6SM SCT100
     FM311900 25017G30KT P6SM BKN070
     FM312200 29016G29KT P6SM BKN050
     FM312300 31014G23KT P6SM SCT050
     FM010200 34009KT P6SM SCT035=



000
FTUS41 KRLX 311100
TAFPKB
TAF
KPKB 311120Z 3112/0112 20008KT P6SM OVC070
     FM311400 22012G19KT P6SM BKN060
     FM311900 27014G26KT P6SM BKN045
     FM312200 31013G21KT P6SM BKN035
     FM312300 32011G19KT P6SM SCT035
     FM010300 33008KT P6SM SCT040=



000
FTUS41 KRLX 311100
TAFCKB
TAF
KCKB 311120Z 3112/0112 20008KT P6SM BKN090
     FM311500 22013G21KT P6SM BKN080
     FM311900 27017G31KT P6SM BKN060
     FM312300 31013G21KT P6SM BKN035
     FM010200 32008KT P6SM BKN040=



000
FTUS41 KRLX 310900 AAA
TAFEKN
TAF AMD
KEKN 310958Z 3110/0106 00000KT P6SM SCT070
     FM311300 24008KT P6SM SCT100
     FM311500 23013G22KT P6SM BKN090
     FM312000 27017G27KT 6SM -SHRA BKN050
     FM312300 30014G24KT P6SM BKN030
     FM010300 31009KT P6SM FEW030=



000
FTUS41 KRLX 310900 AAA
TAFCKB
TAF AMD
KCKB 310958Z 3110/0106 22007KT P6SM OVC080
     FM311300 21009G16KT P6SM BKN090
     FM311500 22013G22KT P6SM BKN080
     FM312000 27015G27KT P6SM BKN050
     FM312300 31013G22KT P6SM BKN035
     FM010200 32009KT P6SM FEW250=



000
FTUS41 KRLX 310900 AAA
TAFBKW
TAF AMD
KBKW 310958Z 3110/0106 28006KT P6SM FEW120
     FM311400 23011G16KT P6SM FEW120
     FM311800 24017G27KT P6SM FEW090
     FM312000 26019G29KT P6SM SCT060
     FM312300 30017G26KT P6SM BKN060
     FM010100 31014G22KT P6SM SCT045
     FM010500 33010KT P6SM FEW250=



000
FTUS41 KRLX 310900 AAA
TAFCRW
TAF AMD
KCRW 310958Z 3110/0106 22003KT P6SM SCT120
     FM311500 22011G18KT P6SM SCT100
     FM312000 27017G28KT P6SM BKN060
     FM312300 31014G22KT P6SM SCT050
     FM010200 34009KT P6SM SCT035=



000
FTUS41 KRLX 310900 AAA
TAFPKB
TAF AMD
KPKB 310958Z 3110/0106 24006KT P6SM OVC090
     FM311400 22011G18KT P6SM BKN090
     FM311900 27014G24KT P6SM BKN060
     FM312200 31013G24KT P6SM BKN045
     FM312300 32011G18KT P6SM SCT040
     FM010100 33008KT P6SM SCT200=



000
FTUS41 KRLX 310900 AAA
TAFHTS
TAF AMD
KHTS 310958Z 3110/0106 20003KT P6SM SCT120
     FM311100 21008KT P6SM FEW120
     FM311500 22012G20KT P6SM FEW100
     FM311900 26016G27KT P6SM SCT050
     FM312100 29016G25KT P6SM SCT050
     FM312300 31011G18KT P6SM SCT045
     FM010200 36008KT P6SM SCT035=



000
FTUS41 KRLX 310900 AAA
TAFCRW
TAF AMD
KCRW 310958Z 3110/0106 22003KT P6SM SCT120
     FM311500 22011G18KT P6SM SCT100
     FM312000 27017G28KT P6SM BKN060
     FM312300 31014G22KT P6SM SCT050
     FM010200 34009KT P6SM SCT035=



000
FTUS41 KRLX 310900 AAA
TAFEKN
TAF AMD
KEKN 310958Z 3110/0106 00000KT P6SM SCT070
     FM311300 24008KT P6SM SCT100
     FM311500 23013G22KT P6SM BKN090
     FM312000 27017G27KT 6SM -SHRA BKN050
     FM312300 30014G24KT P6SM BKN030
     FM010300 31009KT P6SM FEW030=



000
FTUS41 KRLX 310900 AAA
TAFHTS
TAF AMD
KHTS 310958Z 3110/0106 20003KT P6SM SCT120
     FM311100 21008KT P6SM FEW120
     FM311500 22012G20KT P6SM FEW100
     FM311900 26016G27KT P6SM SCT050
     FM312100 29016G25KT P6SM SCT050
     FM312300 31011G18KT P6SM SCT045
     FM010200 36008KT P6SM SCT035=



000
FTUS41 KRLX 310900 AAA
TAFBKW
TAF AMD
KBKW 310958Z 3110/0106 28006KT P6SM FEW120
     FM311400 23011G16KT P6SM FEW120
     FM311800 24017G27KT P6SM FEW090
     FM312000 26019G29KT P6SM SCT060
     FM312300 30017G26KT P6SM BKN060
     FM010100 31014G22KT P6SM SCT045
     FM010500 33010KT P6SM FEW250=



000
FTUS41 KRLX 310900 AAA
TAFCKB
TAF AMD
KCKB 310958Z 3110/0106 22007KT P6SM OVC080
     FM311300 21009G16KT P6SM BKN090
     FM311500 22013G22KT P6SM BKN080
     FM312000 27015G27KT P6SM BKN050
     FM312300 31013G22KT P6SM BKN035
     FM010200 32009KT P6SM FEW250=



000
FTUS41 KRLX 310900 AAA
TAFPKB
TAF AMD
KPKB 310958Z 3110/0106 24006KT P6SM OVC090
     FM311400 22011G18KT P6SM BKN090
     FM311900 27014G24KT P6SM BKN060
     FM312200 31013G24KT P6SM BKN045
     FM312300 32011G18KT P6SM SCT040
     FM010100 33008KT P6SM SCT200=



000
FTUS41 KRLX 310500
TAFCRW
TAF
KCRW 310537Z 3106/0106 22003KT P6SM SCT120
     FM311500 22011G18KT P6SM SCT100
     FM312000 27017G28KT P6SM BKN060
     FM312300 31014G22KT P6SM SCT050
     FM010200 34009KT P6SM SCT035=



000
FTUS41 KRLX 310500
TAFPKB
TAF
KPKB 310537Z 3106/0106 24006KT P6SM OVC090
     FM311400 22011G18KT P6SM BKN090
     FM311900 27014G24KT P6SM BKN060
     FM312200 31013G24KT P6SM BKN045
     FM312300 32011G18KT P6SM SCT040
     FM010100 33008KT P6SM SCT200=



000
FTUS41 KRLX 310500
TAFBKW
TAF
KBKW 310537Z 3106/0106 28006KT P6SM FEW120
     FM311400 23011G16KT P6SM FEW120
     FM311800 24017G27KT P6SM FEW090
     FM312000 26019G29KT P6SM SCT060
     FM312300 30017G26KT P6SM BKN060
     FM010100 31014G22KT P6SM SCT045
     FM010500 33010KT P6SM FEW250=



000
FTUS41 KRLX 310500
TAFHTS
TAF
KHTS 310537Z 3106/0106 20003KT P6SM SCT120
     FM311100 21008KT P6SM FEW120
     FM311500 22012G20KT P6SM FEW100
     FM311900 26016G27KT P6SM SCT050
     FM312100 29016G25KT P6SM SCT050
     FM312300 31011G18KT P6SM SCT045
     FM010200 36008KT P6SM SCT035=



000
FTUS41 KRLX 310500
TAFEKN
TAF
KEKN 310537Z 3106/0106 27010G17KT P6SM SCT070
     FM311100 24008KT P6SM SCT100
     FM311500 23013G22KT P6SM BKN090
     FM312000 27017G27KT 6SM -SHRA BKN050
     FM312300 30014G24KT P6SM BKN030
     FM010300 31009KT P6SM FEW030=



000
FTUS41 KRLX 310500
TAFPKB
TAF
KPKB 310537Z 3106/0106 24006KT P6SM OVC090
     FM311400 22011G18KT P6SM BKN090
     FM311900 27014G24KT P6SM BKN060
     FM312200 31013G24KT P6SM BKN045
     FM312300 32011G18KT P6SM SCT040
     FM010100 33008KT P6SM SCT200=



000
FTUS41 KRLX 310500
TAFBKW
TAF
KBKW 310537Z 3106/0106 28006KT P6SM FEW120
     FM311400 23011G16KT P6SM FEW120
     FM311800 24017G27KT P6SM FEW090
     FM312000 26019G29KT P6SM SCT060
     FM312300 30017G26KT P6SM BKN060
     FM010100 31014G22KT P6SM SCT045
     FM010500 33010KT P6SM FEW250=



000
FTUS41 KRLX 310500
TAFCKB
TAF
KCKB 310537Z 3106/0106 22007KT P6SM OVC080
     FM311300 21009G16KT P6SM BKN090
     FM311500 22013G22KT P6SM BKN080
     FM312000 27015G27KT P6SM BKN050
     FM312300 31013G22KT P6SM BKN035
     FM010200 32009KT P6SM FEW250=



000
FTUS41 KRLX 310500
TAFCRW
TAF
KCRW 310537Z 3106/0106 22003KT P6SM SCT120
     FM311500 22011G18KT P6SM SCT100
     FM312000 27017G28KT P6SM BKN060
     FM312300 31014G22KT P6SM SCT050
     FM010200 34009KT P6SM SCT035=



000
FTUS41 KRLX 310500
TAFEKN
TAF
KEKN 310537Z 3106/0106 27010G17KT P6SM SCT070
     FM311100 24008KT P6SM SCT100
     FM311500 23013G22KT P6SM BKN090
     FM312000 27017G27KT 6SM -SHRA BKN050
     FM312300 30014G24KT P6SM BKN030
     FM010300 31009KT P6SM FEW030=



000
FTUS41 KRLX 310500
TAFCKB
TAF
KCKB 310537Z 3106/0106 22007KT P6SM OVC080
     FM311300 21009G16KT P6SM BKN090
     FM311500 22013G22KT P6SM BKN080
     FM312000 27015G27KT P6SM BKN050
     FM312300 31013G22KT P6SM BKN035
     FM010200 32009KT P6SM FEW250=



000
FTUS41 KRLX 310500
TAFHTS
TAF
KHTS 310537Z 3106/0106 20003KT P6SM SCT120
     FM311100 21008KT P6SM FEW120
     FM311500 22012G20KT P6SM FEW100
     FM311900 26016G27KT P6SM SCT050
     FM312100 29016G25KT P6SM SCT050
     FM312300 31011G18KT P6SM SCT045
     FM010200 36008KT P6SM SCT035=



000
FTUS41 KRLX 310200 AAB
TAFEKN
TAF AMD
KEKN 310238Z 3103/3124 VRB03KT P6SM BKN250
     FM311100 24007KT P6SM BKN250
     FM311400 24012G20KT P6SM BKN090
     FM311700 24016G27KT P6SM BKN050
     FM312000 26016G27KT 6SM -SHRA BR BKN035
     FM312200 28014G24KT 6SM -SHRA BR BKN030=



000
FTUS41 KRLX 310200 AAA
TAFCKB
TAF AMD
KCKB 310238Z 3103/3124 26006KT P6SM BKN250
     FM310800 23005KT P6SM BKN080
     FM311300 21009G15KT P6SM BKN100
     FM311500 22014G24KT P6SM BKN090
     FM312100 28014G24KT P6SM BKN045
     FM312300 31012G20KT P6SM BKN040=



000
FTUS41 KRLX 310200 AAB
TAFEKN
TAF AMD
KEKN 310238Z 3103/3124 VRB03KT P6SM BKN250
     FM311100 24007KT P6SM BKN250
     FM311400 24012G20KT P6SM BKN090
     FM311700 24016G27KT P6SM BKN050
     FM312000 26016G27KT 6SM -SHRA BR BKN035
     FM312200 28014G24KT 6SM -SHRA BR BKN030=



000
FTUS41 KRLX 310100 AAA
TAFHTS
TAF AMD
KHTS 310159Z 3102/3124 27004KT P6SM BKN250
     FM311300 21009G15KT P6SM BKN200
     FM311500 23013G22KT P6SM BKN250
     FM312000 27014G24KT P6SM BKN250
     FM312300 30011G19KT P6SM SCT080=



000
FTUS41 KRLX 310100 AAA
TAFPKB
TAF AMD
KPKB 310159Z 3102/3124 24005KT P6SM BKN250
     FM310600 23004KT P6SM BKN100
     FM311100 21008KT P6SM BKN120
     FM311400 22012G20KT P6SM BKN110
     FM311900 26014G24KT P6SM BKN070
     FM312100 30013G22KT P6SM BKN045=



000
FTUS41 KRLX 310100 AAA
TAFCRW
TAF AMD
KCRW 310159Z 3102/3124 28005KT P6SM SCT250
     FM310400 25003KT P6SM SCT250
     FM311000 22004KT P6SM BKN250
     FM311300 21008KT P6SM BKN250
     FM311500 22013G22KT P6SM BKN250
     FM312000 26015G26KT P6SM BKN090
     FM312300 30012G20KT P6SM BKN060=



000
FTUS41 KRLX 310100 AAA
TAFCRW
TAF AMD
KCRW 310159Z 3102/3124 28005KT P6SM SCT250
     FM310400 25003KT P6SM SCT250
     FM311000 22004KT P6SM BKN250
     FM311300 21008KT P6SM BKN250
     FM311500 22013G22KT P6SM BKN250
     FM312000 26015G26KT P6SM BKN090
     FM312300 30012G20KT P6SM BKN060=



000
FTUS41 KRLX 310100 AAA
TAFHTS
TAF AMD
KHTS 310159Z 3102/3124 27004KT P6SM BKN250
     FM311300 21009G15KT P6SM BKN200
     FM311500 23013G22KT P6SM BKN250
     FM312000 27014G24KT P6SM BKN250
     FM312300 30011G19KT P6SM SCT080=



000
FTUS41 KRLX 310100 AAA
TAFBKW
TAF AMD
KBKW 310158Z 3102/3124 29005KT P6SM BKN250
     FM311100 23006KT P6SM BKN250
     FM311400 23010G17KT P6SM BKN250
     FM311700 25015G26KT P6SM BKN250
     FM312000 26017G29KT P6SM BKN070=



000
FTUS41 KRLX 310100 AAA
TAFBKW
TAF AMD
KBKW 310158Z 3102/3124 29005KT P6SM BKN250
     FM311100 23006KT P6SM BKN250
     FM311400 23010G17KT P6SM BKN250
     FM311700 25015G26KT P6SM BKN250
     FM312000 26017G29KT P6SM BKN070=



000
FTUS41 KRLX 310000 AAA
TAFEKN
TAF AMD
KEKN 310057Z 3101/3124 VRB03KT P6SM SCT070
     FM310200 VRB03KT P6SM SCT250
     FM311100 24007KT P6SM BKN250
     FM311400 24012G20KT P6SM BKN090
     FM311700 24016G27KT P6SM BKN050
     FM312000 26016G27KT 6SM -SHRA BR BKN035
     FM312200 28014G24KT 6SM -SHRA BR BKN030=



000
FTUS41 KRLX 310000 AAA
TAFEKN
TAF AMD
KEKN 310057Z 3101/3124 VRB03KT P6SM SCT070
     FM310200 VRB03KT P6SM SCT250
     FM311100 24007KT P6SM BKN250
     FM311400 24012G20KT P6SM BKN090
     FM311700 24016G27KT P6SM BKN050
     FM312000 26016G27KT 6SM -SHRA BR BKN035
     FM312200 28014G24KT 6SM -SHRA BR BKN030=



000
FTUS41 KRLX 302300 CCA
TAFPKB
TAF COR
KPKB 302357Z 3100/3124 28010G20KT P6SM BKN250
     FM310100 28010KT P6SM BKN250
     FM310300 24005KT P6SM BKN250
     FM310600 23004KT P6SM BKN100
     FM311100 21008KT P6SM BKN120
     FM311400 22012G20KT P6SM BKN110
     FM311900 26014G24KT P6SM BKN070
     FM312100 30013G22KT P6SM BKN045=



000
FTUS41 KRLX 302300 CCA
TAFPKB
TAF COR
KPKB 302357Z 3100/3124 28010G20KT P6SM BKN250
     FM310100 28010KT P6SM BKN250
     FM310300 24005KT P6SM BKN250
     FM310600 23004KT P6SM BKN100
     FM311100 21008KT P6SM BKN120
     FM311400 22012G20KT P6SM BKN110
     FM311900 26014G24KT P6SM BKN070
     FM312100 30013G22KT P6SM BKN045=



000
FTUS41 KRLX 302300
TAFCRW
TAF
KCRW 302334Z 3100/3124 28010KT P6SM SCT250
     FM310400 25003KT P6SM SCT250
     FM311000 22004KT P6SM BKN250
     FM311300 21008KT P6SM BKN250
     FM311500 22013G22KT P6SM BKN250
     FM312000 26015G26KT P6SM BKN090
     FM312300 30012G20KT P6SM BKN060=



000
FTUS41 KRLX 302300
TAFCKB
TAF
KCKB 302334Z 3100/3124 28006KT P6SM SCT080
     FM310100 27006KT P6SM SCT250
     FM310800 23005KT P6SM BKN080
     FM311300 21009G15KT P6SM BKN100
     FM311500 22014G24KT P6SM BKN090
     FM312100 28014G24KT P6SM BKN045
     FM312300 31012G20KT P6SM BKN040=



000
FTUS41 KRLX 302300
TAFBKW
TAF
KBKW 302334Z 3100/3124 29009G16KT P6SM SCT250
     FM310300 29005KT P6SM BKN250
     FM311100 23006KT P6SM BKN250
     FM311400 23010G17KT P6SM BKN250
     FM311700 25015G26KT P6SM BKN250
     FM312000 26017G29KT P6SM BKN070=



000
FTUS41 KRLX 302300
TAFHTS
TAF
KHTS 302334Z 3100/3124 29006KT P6SM BKN250
     FM310300 23004KT P6SM BKN250
     FM311300 21009G15KT P6SM BKN200
     FM311500 23013G22KT P6SM BKN250
     FM312000 27014G24KT P6SM BKN250
     FM312300 30011G19KT P6SM SCT080=



000
FTUS41 KRLX 302300
TAFPKB
TAF
KPKB 302334Z 3100/3124 28010KT P6SM BKN250
     FM310300 24005KT P6SM BKN250
     FM310600 23004KT P6SM BKN100
     FM311100 21008KT P6SM BKN120
     FM311400 22012G20KT P6SM BKN110
     FM311900 26014G24KT P6SM BKN070
     FM312100 30013G22KT P6SM BKN045=



000
FTUS41 KRLX 302300
TAFEKN
TAF
KEKN 302334Z 3100/3124 28008G15KT P6SM SCT070
     FM310200 27007KT P6SM SCT250
     FM311100 24007KT P6SM BKN250
     FM311400 24012G20KT P6SM BKN090
     FM311700 24016G27KT P6SM BKN050
     FM312000 26016G27KT 6SM -SHRA BR BKN035
     FM312200 28014G24KT 6SM -SHRA BR BKN030=



000
FTUS41 KRLX 302300 AAA
TAFCRW
TAF AMD
KCRW 302302Z 3023/3118 28012G23KT P6SM SCT080
     FM310000 29010KT P6SM SCT250
     FM310200 26004KT P6SM SCT120
     FM311200 21008KT P6SM BKN120
     FM311500 23013G28KT P6SM BKN120=



000
FTUS41 KRLX 302300 AAA
TAFCRW
TAF AMD
KCRW 302302Z 3023/3118 28012G23KT P6SM SCT080
     FM310000 29010KT P6SM SCT250
     FM310200 26004KT P6SM SCT120
     FM311200 21008KT P6SM BKN120
     FM311500 23013G28KT P6SM BKN120=



000
FTUS41 KRLX 302300 AAB
TAFPKB
TAF AMD
KPKB 302302Z 3023/3118 29014G24KT P6SM SCT080
     FM310000 27008G13KT P6SM SCT120
     FM310400 24004KT P6SM BKN120
     FM311100 21008KT P6SM BKN110
     FM311400 23012G25KT P6SM BKN120=



000
FTUS41 KRLX 302300 AAB
TAFPKB
TAF AMD
KPKB 302302Z 3023/3118 29014G24KT P6SM SCT080
     FM310000 27008G13KT P6SM SCT120
     FM310400 24004KT P6SM BKN120
     FM311100 21008KT P6SM BKN110
     FM311400 23012G25KT P6SM BKN120=



000
FTUS41 KRLX 301900 AAA
TAFBKW
TAF AMD
KBKW 301924Z 3019/3118 30014G22KT P6SM SCT050
     FM310000 30009G14KT P6SM SCT060
     FM310300 29005KT P6SM SCT070
     FM311300 24009KT P6SM BKN100
     FM311500 24014G28KT P6SM SCT110=



000
FTUS41 KRLX 301900 AAA
TAFBKW
TAF AMD
KBKW 301924Z 3019/3118 30014G22KT P6SM SCT050
     FM310000 30009G14KT P6SM SCT060
     FM310300 29005KT P6SM SCT070
     FM311300 24009KT P6SM BKN100
     FM311500 24014G28KT P6SM SCT110=



000
FTUS41 KRLX 301900 AAA
TAFPKB
TAF AMD
KPKB 301922Z 3019/3118 30012G25KT P6SM SCT060
     FM302300 27008G13KT P6SM SCT120
     FM310400 24004KT P6SM BKN120
     FM311100 21008KT P6SM BKN110
     FM311400 23012G25KT P6SM BKN120=



000
FTUS41 KRLX 301700 RRA
TAFHTS
TAF
KHTS 301746Z 3018/3118 29011G20KT P6SM FEW060
     FM302300 29007KT P6SM SCT120
     FM310300 23004KT P6SM SCT130
     FM311000 22007KT P6SM BKN110
     FM311400 22012G26KT P6SM BKN120=



000
FTUS41 KRLX 301700 RRA
TAFPKB
TAF
KPKB 301746Z 3018/3118 28012G25KT P6SM SCT060
     FM302300 27008G13KT P6SM SCT120
     FM310400 24004KT P6SM BKN120
     FM311100 21008KT P6SM BKN110
     FM311400 23012G25KT P6SM BKN120=



000
FTUS41 KRLX 301700 RRA
TAFCKB
TAF
KCKB 301746Z 3018/3118 28013G25KT P6SM SCT050
     FM302300 28008G13KT P6SM SCT060
     FM310500 25006KT P6SM BKN100
     FM311300 21010G25KT P6SM BKN120=



000
FTUS41 KRLX 301700 RRA
TAFCRW
TAF
KCRW 301746Z 3018/3118 28012G23KT P6SM SCT050
     FM302300 29010KT P6SM SCT060
     FM310200 26004KT P6SM SCT120
     FM311200 21008KT P6SM BKN120
     FM311500 23013G28KT P6SM BKN120=



000
FTUS41 KRLX 301700 RRA
TAFBKW
TAF
KBKW 301746Z 3018/3118 31013G22KT P6SM SCT035
     FM310000 30009G14KT P6SM SCT060
     FM310300 29005KT P6SM SCT070
     FM311300 24009KT P6SM BKN100
     FM311500 24014G28KT P6SM SCT110=



000
FTUS41 KRLX 301700 RRA
TAFEKN
TAF
KEKN 301746Z 3018/3118 28013G22KT P6SM BKN040
     FM310000 28008G13KT P6SM SCT050
     FM310300 27007KT P6SM SCT150
     FM310800 27008KT P6SM BKN060
     FM311300 24010G20KT P6SM SCT110
     FM311600 24015G30KT P6SM SCT110=



000
FTUS41 KRLX 301700 RRA
TAFPKB
TAF
KPKB 301746Z 3018/3118 28012G25KT P6SM SCT060
     FM302300 27008G13KT P6SM SCT120
     FM310400 24004KT P6SM BKN120
     FM311100 21008KT P6SM BKN110
     FM311400 23012G25KT P6SM BKN120=



000
FTUS41 KRLX 301700 RRA
TAFHTS
TAF
KHTS 301746Z 3018/3118 29011G20KT P6SM FEW060
     FM302300 29007KT P6SM SCT120
     FM310300 23004KT P6SM SCT130
     FM311000 22007KT P6SM BKN110
     FM311400 22012G26KT P6SM BKN120=



000
FTUS41 KRLX 301700 RRA
TAFCKB
TAF
KCKB 301746Z 3018/3118 28013G25KT P6SM SCT050
     FM302300 28008G13KT P6SM SCT060
     FM310500 25006KT P6SM BKN100
     FM311300 21010G25KT P6SM BKN120=



000
FTUS41 KRLX 301700 RRA
TAFEKN
TAF
KEKN 301746Z 3018/3118 28013G22KT P6SM BKN040
     FM310000 28008G13KT P6SM SCT050
     FM310300 27007KT P6SM SCT150
     FM310800 27008KT P6SM BKN060
     FM311300 24010G20KT P6SM SCT110
     FM311600 24015G30KT P6SM SCT110=



000
FTUS41 KRLX 301700 RRA
TAFBKW
TAF
KBKW 301746Z 3018/3118 31013G22KT P6SM SCT035
     FM310000 30009G14KT P6SM SCT060
     FM310300 29005KT P6SM SCT070
     FM311300 24009KT P6SM BKN100
     FM311500 24014G28KT P6SM SCT110=



000
FTUS41 KRLX 301700 RRA
TAFCRW
TAF
KCRW 301746Z 3018/3118 28012G23KT P6SM SCT050
     FM302300 29010KT P6SM SCT060
     FM310200 26004KT P6SM SCT120
     FM311200 21008KT P6SM BKN120
     FM311500 23013G28KT P6SM BKN120=



000
FTUS41 KRLX 301400 AAA
TAFCKB
TAF AMD
KCKB 301459Z 3015/3112 29011G16KT P6SM SCT035
     FM310000 25006KT P6SM SCT120=



000
FTUS41 KRLX 301400 AAA
TAFEKN
TAF AMD
KEKN 301459Z 3015/3112 26010G16KT P6SM BKN025
     FM301700 28013G20KT P6SM SCT020
     FM310200 28010G15KT P6SM BKN200
     FM310900 26009KT P6SM BKN045=



000
FTUS41 KRLX 301400 AAA
TAFCRW
TAF AMD
KCRW 301459Z 3015/3112 30010G20KT P6SM SCT040
     FM310000 28007KT P6SM FEW150
     FM310900 22005KT P6SM SCT090=



000
FTUS41 KRLX 301400 AAA
TAFBKW
TAF AMD
KBKW 301459Z 3015/3112 27009G14KT P6SM OVC025
     FM301700 30012G18KT P6SM SCT025
     FM310100 30009KT P6SM SCT250=



000
FTUS41 KRLX 301400 AAA
TAFPKB
TAF AMD
KPKB 301459Z 3015/3112 29009G16KT P6SM SCT040
     FM302300 27008KT P6SM SCT150
     FM310600 23005KT P6SM BKN060=



000
FTUS41 KRLX 301400 AAA
TAFHTS
TAF AMD
KHTS 301459Z 3015/3112 29008G15KT P6SM SCT040
     FM302300 28007KT P6SM SCT250
     FM310800 22006KT P6SM SCT090
     FM310900 22006KT P6SM BKN100=



000
FTUS41 KRLX 301100 CCA
TAFCRW
TAF COR
KCRW 301159Z 3012/3112 26007KT 6SM -SHRA BR SCT009 BKN025
     FM301400 29009G15KT P6SM SCT040
     FM310000 28007KT P6SM FEW150
     FM310900 22005KT P6SM SCT090=



000
FTUS41 KRLX 301100 CCA
TAFCRW
TAF COR
KCRW 301159Z 3012/3112 26007KT 6SM -SHRA BR SCT009 BKN025
     FM301400 29009G15KT P6SM SCT040
     FM310000 28007KT P6SM FEW150
     FM310900 22005KT P6SM SCT090=



000
FTUS41 KRLX 301100 CCA
TAFBKW
TAF COR
KBKW 301154Z 3012/3112 26011KT 4SM -SHRA BKN004 OVC010
     FM301400 27009KT 6SM -SHRA OVC012
     FM301500 27009G14KT P6SM OVC019
     FM301700 30012G18KT P6SM SCT025
     FM310100 30009KT P6SM SCT250=



000
FTUS41 KRLX 301100 CCA
TAFBKW
TAF COR
KBKW 301154Z 3012/3112 26011KT 4SM -SHRA BKN004 OVC010
     FM301400 27009KT 6SM -SHRA OVC012
     FM301500 27009G14KT P6SM OVC019
     FM301700 30012G18KT P6SM SCT025
     FM310100 30009KT P6SM SCT250=



000
FTUS41 KRLX 301100
TAFPKB
TAF
KPKB 301138Z 3012/3112 30006KT P6SM BKN035
     FM301500 28009G16KT P6SM SCT040
     FM302300 27008KT P6SM SCT150
     FM310600 23005KT P6SM BKN060=



000
FTUS41 KRLX 301100
TAFEKN
TAF
KEKN 301138Z 3012/3112 26010G16KT P6SM OVC021
     FM301700 28013G20KT P6SM SCT020
     FM310200 28010G15KT P6SM BKN200
     FM310900 26009KT P6SM BKN045=



000
FTUS41 KRLX 301100
TAFBKW
TAF
KBKW 301138Z 3012/3112 26011KT 4SM -SHRA BKN004 OVC010
     FM301300 27009KT 6SM -SHRA OVC012
     FM301400 27009G14KT P6SM OVC019
     FM301700 30012G18KT P6SM SCT025
     FM310100 30009KT P6SM SCT250=



000
FTUS41 KRLX 301100
TAFHTS
TAF
KHTS 301138Z 3012/3112 30006KT P6SM BKN035
     FM301500 29008G15KT P6SM SCT040
     FM302300 28007KT P6SM SCT250
     FM310800 22006KT P6SM SCT090
     FM310900 22006KT P6SM BKN100=



000
FTUS41 KRLX 301100
TAFCKB
TAF
KCKB 301138Z 3012/3112 24010KT 6SM BR BKN009 OVC015
     FM301300 25010KT 6SM BR BKN015
     FM301500 27011G16KT P6SM BKN025
     FM301600 27011G17KT P6SM BKN035
     FM301700 28012G17KT P6SM SCT040
     FM310000 25006KT P6SM SCT120=



000
FTUS41 KRLX 301100
TAFCRW
TAF
KCRW 301138Z 3012/3112 26007KT 6SM -SHRA BKN009 OVC025
     FM301300 26007KT 6SM -SHRA SCT009 BKN025
     FM301500 29009G15KT P6SM SCT040
     FM310000 28007KT P6SM FEW150
     FM310900 22005KT P6SM SCT090=



000
FTUS41 KRLX 301100
TAFBKW
TAF
KBKW 301138Z 3012/3112 26011KT 4SM -SHRA BKN004 OVC010
     FM301300 27009KT 6SM -SHRA OVC012
     FM301400 27009G14KT P6SM OVC019
     FM301700 30012G18KT P6SM SCT025
     FM310100 30009KT P6SM SCT250=



000
FTUS41 KRLX 301100
TAFPKB
TAF
KPKB 301138Z 3012/3112 30006KT P6SM BKN035
     FM301500 28009G16KT P6SM SCT040
     FM302300 27008KT P6SM SCT150
     FM310600 23005KT P6SM BKN060=



000
FTUS41 KRLX 301100
TAFCKB
TAF
KCKB 301138Z 3012/3112 24010KT 6SM BR BKN009 OVC015
     FM301300 25010KT 6SM BR BKN015
     FM301500 27011G16KT P6SM BKN025
     FM301600 27011G17KT P6SM BKN035
     FM301700 28012G17KT P6SM SCT040
     FM310000 25006KT P6SM SCT120=



000
FTUS41 KRLX 301100
TAFCRW
TAF
KCRW 301138Z 3012/3112 26007KT 6SM -SHRA BKN009 OVC025
     FM301300 26007KT 6SM -SHRA SCT009 BKN025
     FM301500 29009G15KT P6SM SCT040
     FM310000 28007KT P6SM FEW150
     FM310900 22005KT P6SM SCT090=



000
FTUS41 KRLX 301100
TAFEKN
TAF
KEKN 301138Z 3012/3112 26010G16KT P6SM OVC021
     FM301700 28013G20KT P6SM SCT020
     FM310200 28010G15KT P6SM BKN200
     FM310900 26009KT P6SM BKN045=



000
FTUS41 KRLX 301100
TAFHTS
TAF
KHTS 301138Z 3012/3112 30006KT P6SM BKN035
     FM301500 29008G15KT P6SM SCT040
     FM302300 28007KT P6SM SCT250
     FM310800 22006KT P6SM SCT090
     FM310900 22006KT P6SM BKN100=



000
FTUS41 KRLX 301100 AAB
TAFBKW
TAF AMD
KBKW 301108Z 3011/3106 22005KT P6SM -RA OVC005
     FM301400 28009KT P6SM OVC023
     FM301700 29012G18KT P6SM SCT035
     FM302100 29013G20KT P6SM SCT040
     FM310100 29010G15KT P6SM SCT200=



000
FTUS41 KRLX 300800 AAA
TAFCKB
TAF AMD
KCKB 300859Z 3009/3106 19009KT P6SM OVC030
     FM301100 24008KT P6SM OVC022
     FM301300 26009KT P6SM BKN022
     FM301500 26010G15KT P6SM BKN024
     FM301700 26011G16KT P6SM SCT035
     FM310000 27008KT P6SM SCT200=



000
FTUS41 KRLX 300800 AAA
TAFBKW
TAF AMD
KBKW 300859Z 3009/3106 22005KT P6SM -RA OVC022
     FM301400 28009KT P6SM OVC023
     FM301700 29012G18KT P6SM SCT035
     FM302100 29013G20KT P6SM SCT040
     FM310100 29010G15KT P6SM SCT200=



000
FTUS41 KRLX 300800 AAA
TAFCRW
TAF AMD
KCRW 300859Z 3009/3106 24009G18KT P6SM -RA OVC028
     FM301100 26007KT P6SM OVC026
     FM301500 28008KT P6SM SCT028
     FM301800 28012G18KT P6SM SCT045
     FM302300 27007KT P6SM SCT200=



000
FTUS41 KRLX 300800 AAA
TAFEKN
TAF AMD
KEKN 300859Z 3009/3106 17008KT P6SM BKN019 OVC035
     FM301300 26010G16KT P6SM OVC025
     FM301700 27012G19KT P6SM SCT030
     FM310200 28010KT P6SM BKN200=



000
FTUS41 KRLX 300800 AAA
TAFPKB
TAF AMD
KPKB 300859Z 3009/3106 25007G17KT P6SM OVC022
     FM301100 26007KT P6SM BKN025
     FM301500 28009KT P6SM SCT025
     FM301700 27010G17KT P6SM BKN045
     FM310000 27007KT P6SM SCT200=



000
FTUS41 KRLX 300800 AAA
TAFHTS
TAF AMD
KHTS 300859Z 3009/3106 22010G15KT P6SM FEW015 BKN026 OVC035
     FM301400 28007KT P6SM SCT025
     FM301500 27009G16KT P6SM SCT045
     FM310000 26005KT P6SM FEW150=



000
FTUS41 KRLX 300500 CCA
TAFEKN
TAF COR
KEKN 300535Z 3006/3106 23009KT 6SM -SHRASN OVC025
      TEMPO 3006/3007 VRB20G35KT
     FM300900 23010G15KT 6SM -SHRASN OVC025
     FM301300 26010G16KT P6SM OVC025
     FM301700 27012G19KT P6SM SCT030
     FM310200 28010KT P6SM BKN200=



000
FTUS41 KRLX 300500 CCA
TAFEKN
TAF COR
KEKN 300535Z 3006/3106 23009KT 6SM -SHRASN OVC025
      TEMPO 3006/3007 VRB20G35KT
     FM300900 23010G15KT 6SM -SHRASN OVC025
     FM301300 26010G16KT P6SM OVC025
     FM301700 27012G19KT P6SM SCT030
     FM310200 28010KT P6SM BKN200=



000
FTUS41 KRLX 300500
TAFHTS
TAF
KHTS 300531Z 3006/3106 27005KT 6SM -SHRA BKN060 OVC070
     FM300900 25008KT P6SM BKN025
     FM301400 28007KT P6SM SCT025
     FM301500 27009G16KT P6SM SCT045
     FM310000 26005KT P6SM FEW150=



000
FTUS41 KRLX 300500
TAFPKB
TAF
KPKB 300531Z 3006/3106 28007KT P6SM OVC070
     FM300900 24008KT P6SM BKN035
     FM301100 26007KT P6SM BKN025
     FM301500 28009KT P6SM SCT025
     FM301700 27010G17KT P6SM BKN045
     FM310000 27007KT P6SM SCT200=



000
FTUS41 KRLX 300500
TAFCRW
TAF
KCRW 300531Z 3006/3106 24005KT 6SM -SHRA BKN050 OVC070
     FM300900 24008KT 6SM -SHRA OVC023
     FM301100 26007KT P6SM OVC026
     FM301500 28008KT P6SM SCT028
     FM301800 28012G18KT P6SM SCT045
     FM302300 27007KT P6SM SCT200=



000
FTUS41 KRLX 300500
TAFEKN
TAF
KEKN 300531Z 3006/3106 25006KT 6SM -SHRASN BKN050 OVC100
      TEMPO 3006/3007 VRB20G35KT
     FM300900 23010G15KT 6SM -SHRASN OVC025
     FM301300 26010G16KT P6SM OVC025
     FM301700 27012G19KT P6SM SCT030
     FM310200 28010KT P6SM BKN200=



000
FTUS41 KRLX 300500
TAFCKB
TAF
KCKB 300531Z 3006/3106 26010G17KT 5SM -SHRA BKN045 OVC060
     FM300700 22009KT 6SM -SHRA OVC022
     FM301100 24008KT P6SM OVC022
     FM301300 26009KT P6SM BKN022
     FM301500 26010G15KT P6SM BKN024
     FM301700 26011G16KT P6SM SCT035
     FM310000 27008KT P6SM SCT200=



000
FTUS41 KRLX 300500
TAFBKW
TAF
KBKW 300531Z 3006/3106 18005KT P6SM BKN040 OVC050
     FM300800 23008KT 6SM -SHRA OVC045
     FM300900 23008KT 6SM -SHRA OVC025
     FM301400 28009KT P6SM BKN025
     FM301700 29012G18KT P6SM SCT035
     FM302100 29013G20KT P6SM SCT040
     FM310100 29010G15KT P6SM SCT200=



000
FTUS41 KRLX 300500
TAFCRW
TAF
KCRW 300531Z 3006/3106 24005KT 6SM -SHRA BKN050 OVC070
     FM300900 24008KT 6SM -SHRA OVC023
     FM301100 26007KT P6SM OVC026
     FM301500 28008KT P6SM SCT028
     FM301800 28012G18KT P6SM SCT045
     FM302300 27007KT P6SM SCT200=



000
FTUS41 KRLX 300500
TAFPKB
TAF
KPKB 300531Z 3006/3106 28007KT P6SM OVC070
     FM300900 24008KT P6SM BKN035
     FM301100 26007KT P6SM BKN025
     FM301500 28009KT P6SM SCT025
     FM301700 27010G17KT P6SM BKN045
     FM310000 27007KT P6SM SCT200=



000
FTUS41 KRLX 300500
TAFEKN
TAF
KEKN 300531Z 3006/3106 25006KT 6SM -SHRASN BKN050 OVC100
      TEMPO 3006/3007 VRB20G35KT
     FM300900 23010G15KT 6SM -SHRASN OVC025
     FM301300 26010G16KT P6SM OVC025
     FM301700 27012G19KT P6SM SCT030
     FM310200 28010KT P6SM BKN200=



000
FTUS41 KRLX 300500
TAFBKW
TAF
KBKW 300531Z 3006/3106 18005KT P6SM BKN040 OVC050
     FM300800 23008KT 6SM -SHRA OVC045
     FM300900 23008KT 6SM -SHRA OVC025
     FM301400 28009KT P6SM BKN025
     FM301700 29012G18KT P6SM SCT035
     FM302100 29013G20KT P6SM SCT040
     FM310100 29010G15KT P6SM SCT200=



000
FTUS41 KRLX 300500
TAFCKB
TAF
KCKB 300531Z 3006/3106 26010G17KT 5SM -SHRA BKN045 OVC060
     FM300700 22009KT 6SM -SHRA OVC022
     FM301100 24008KT P6SM OVC022
     FM301300 26009KT P6SM BKN022
     FM301500 26010G15KT P6SM BKN024
     FM301700 26011G16KT P6SM SCT035
     FM310000 27008KT P6SM SCT200=



000
FTUS41 KRLX 300500
TAFHTS
TAF
KHTS 300531Z 3006/3106 27005KT 6SM -SHRA BKN060 OVC070
     FM300900 25008KT P6SM BKN025
     FM301400 28007KT P6SM SCT025
     FM301500 27009G16KT P6SM SCT045
     FM310000 26005KT P6SM FEW150=



000
FTUS41 KRLX 300100 AAA
TAFEKN
TAF AMD
KEKN 300118Z 3001/3024 18004KT P6SM BKN120
     FM300600 23012G24KT P6SM -RASN OVC080
     FM300800 23010KT P6SM -SHRASN OVC025
     FM301100 25010KT P6SM OVC025
     FM301300 26010G16KT P6SM BKN025
     FM301700 27012G19KT P6SM BKN035
     FM302100 27014G21KT P6SM SCT040=



000
FTUS41 KRLX 300100 AAA
TAFEKN
TAF AMD
KEKN 300118Z 3001/3024 18004KT P6SM BKN120
     FM300600 23012G24KT P6SM -RASN OVC080
     FM300800 23010KT P6SM -SHRASN OVC025
     FM301100 25010KT P6SM OVC025
     FM301300 26010G16KT P6SM BKN025
     FM301700 27012G19KT P6SM BKN035
     FM302100 27014G21KT P6SM SCT040=



000
FTUS41 KRLX 300100 CCA
TAFPKB
TAF COR
KPKB 300117Z 3001/3024 17007KT P6SM BKN120
     FM300300 20013G25KT P6SM -RA OVC060
     FM300500 22009KT P6SM -SHRA OVC040
     FM300900 24008KT P6SM OVC045
     FM301300 27008KT P6SM BKN035
     FM301500 28009KT P6SM SCT035
     FM301900 27012G18KT P6SM SKC
     FM302300 26008KT P6SM SKC=



000
FTUS41 KRLX 300100 CCA
TAFPKB
TAF COR
KPKB 300117Z 3001/3024 17007KT P6SM BKN120
     FM300300 20013G25KT P6SM -RA OVC060
     FM300500 22009KT P6SM -SHRA OVC040
     FM300900 24008KT P6SM OVC045
     FM301300 27008KT P6SM BKN035
     FM301500 28009KT P6SM SCT035
     FM301900 27012G18KT P6SM SKC
     FM302300 26008KT P6SM SKC=



000
FTUS41 KRLX 300100 AAA
TAFCKB
TAF AMD
KCKB 300116Z 3001/3024 19005KT P6SM BKN150
     FM300500 20012G24KT P6SM -SHRA OVC080
     FM300700 21009KT P6SM -SHRA OVC035
     FM300900 22009KT P6SM OVC035
     FM301700 26011KT P6SM SCT035
     FM302000 26012G18KT P6SM SKC=



000
FTUS41 KRLX 300100 AAA
TAFCKB
TAF AMD
KCKB 300116Z 3001/3024 19005KT P6SM BKN150
     FM300500 20012G24KT P6SM -SHRA OVC080
     FM300700 21009KT P6SM -SHRA OVC035
     FM300900 22009KT P6SM OVC035
     FM301700 26011KT P6SM SCT035
     FM302000 26012G18KT P6SM SKC=



000
FTUS41 KRLX 300100 AAA
TAFPKB
TAF AMD
KPKB 300114Z 3001/3024 17007KT P6SM BKN120
     FM300300 20012G22KT P6SM -RA OVC060
     FM300500 22009KT P6SM -SHRA OVC040
     FM300900 24008KT P6SM OVC045
     FM301300 27008KT P6SM BKN035
     FM301500 28009KT P6SM SCT035
     FM301900 27012G18KT P6SM SKC
     FM302300 26008KT P6SM SKC=



000
FTUS41 KRLX 300100 AAA
TAFPKB
TAF AMD
KPKB 300114Z 3001/3024 17007KT P6SM BKN120
     FM300300 20012G22KT P6SM -RA OVC060
     FM300500 22009KT P6SM -SHRA OVC040
     FM300900 24008KT P6SM OVC045
     FM301300 27008KT P6SM BKN035
     FM301500 28009KT P6SM SCT035
     FM301900 27012G18KT P6SM SKC
     FM302300 26008KT P6SM SKC=



000
FTUS41 KRLX 292300
TAFBKW
TAF
KBKW 292335Z 3000/3024 21008KT P6SM BKN150
     FM300400 22009G14KT P6SM BKN150
     FM300600 23010KT P6SM -RA BKN050
     FM300800 23008KT P6SM -SHRA OVC030
     FM301000 24008KT P6SM -SHRA OVC015
     FM301300 27009KT P6SM BKN018
     FM301500 29010KT P6SM BKN020
     FM302000 29013G20KT P6SM SCT035
     FM302200 29011G17KT P6SM SKC=



000
FTUS41 KRLX 292300
TAFEKN
TAF
KEKN 292335Z 3000/3024 20004KT P6SM BKN200
     FM300500 23008KT P6SM -RASN OVC080
     FM300900 23010G15KT P6SM -SHRASN OVC030
     FM301100 25010KT P6SM OVC025
     FM301300 26010G16KT P6SM BKN025
     FM301700 27012G19KT P6SM BKN035
     FM302100 27014G21KT P6SM SCT040=



000
FTUS41 KRLX 292300
TAFHTS
TAF
KHTS 292335Z 3000/3024 17006KT P6SM OVC120
     FM300500 22009KT P6SM -RA OVC050
     FM300700 23008KT P6SM -SHRA OVC030
     FM300900 25008KT P6SM OVC030
     FM301100 27007KT P6SM BKN035
     FM301400 28007KT P6SM SCT040
     FM302100 28010G15KT P6SM SKC
     FM302300 26006KT P6SM SKC=



000
FTUS41 KRLX 292300
TAFPKB
TAF
KPKB 292335Z 3000/3024 17007KT P6SM BKN120
     FM300500 20009G14KT P6SM -RA OVC060
     FM300700 22009KT P6SM -SHRA OVC030
     FM300900 24008KT P6SM OVC030
     FM301300 27008KT P6SM BKN035
     FM301500 28009KT P6SM SCT035
     FM301900 27012G18KT P6SM SKC
     FM302300 26008KT P6SM SKC=



000
FTUS41 KRLX 292300
TAFCRW
TAF
KCRW 292335Z 3000/3024 18005KT P6SM BKN140
     FM300500 22008KT P6SM -RA OVC080
     FM300800 23008KT P6SM -SHRA OVC030
     FM301000 24008KT P6SM OVC030
     FM301400 28008KT P6SM BKN035
     FM301600 28009KT P6SM SCT035
     FM302100 28012G18KT P6SM SKC
     FM302300 27007KT P6SM SKC=



000
FTUS41 KRLX 292300
TAFCKB
TAF
KCKB 292335Z 3000/3024 19005KT P6SM BKN150
     FM300500 20008KT P6SM -SHRA OVC080
     FM300800 21009KT P6SM -SHRA OVC030
     FM300900 22009KT P6SM OVC030
     FM301700 26011KT P6SM SCT035
     FM302000 26012G18KT P6SM SKC=



000
FTUS41 KRLX 292300
TAFCRW
TAF
KCRW 292335Z 3000/3024 18005KT P6SM BKN140
     FM300500 22008KT P6SM -RA OVC080
     FM300800 23008KT P6SM -SHRA OVC030
     FM301000 24008KT P6SM OVC030
     FM301400 28008KT P6SM BKN035
     FM301600 28009KT P6SM SCT035
     FM302100 28012G18KT P6SM SKC
     FM302300 27007KT P6SM SKC=



000
FTUS41 KRLX 292300
TAFHTS
TAF
KHTS 292335Z 3000/3024 17006KT P6SM OVC120
     FM300500 22009KT P6SM -RA OVC050
     FM300700 23008KT P6SM -SHRA OVC030
     FM300900 25008KT P6SM OVC030
     FM301100 27007KT P6SM BKN035
     FM301400 28007KT P6SM SCT040
     FM302100 28010G15KT P6SM SKC
     FM302300 26006KT P6SM SKC=



000
FTUS41 KRLX 292300
TAFEKN
TAF
KEKN 292335Z 3000/3024 20004KT P6SM BKN200
     FM300500 23008KT P6SM -RASN OVC080
     FM300900 23010G15KT P6SM -SHRASN OVC030
     FM301100 25010KT P6SM OVC025
     FM301300 26010G16KT P6SM BKN025
     FM301700 27012G19KT P6SM BKN035
     FM302100 27014G21KT P6SM SCT040=



000
FTUS41 KRLX 292300
TAFCKB
TAF
KCKB 292335Z 3000/3024 19005KT P6SM BKN150
     FM300500 20008KT P6SM -SHRA OVC080
     FM300800 21009KT P6SM -SHRA OVC030
     FM300900 22009KT P6SM OVC030
     FM301700 26011KT P6SM SCT035
     FM302000 26012G18KT P6SM SKC=



000
FTUS41 KRLX 292300
TAFPKB
TAF
KPKB 292335Z 3000/3024 17007KT P6SM BKN120
     FM300500 20009G14KT P6SM -RA OVC060
     FM300700 22009KT P6SM -SHRA OVC030
     FM300900 24008KT P6SM OVC030
     FM301300 27008KT P6SM BKN035
     FM301500 28009KT P6SM SCT035
     FM301900 27012G18KT P6SM SKC
     FM302300 26008KT P6SM SKC=



000
FTUS41 KRLX 292300
TAFBKW
TAF
KBKW 292335Z 3000/3024 21008KT P6SM BKN150
     FM300400 22009G14KT P6SM BKN150
     FM300600 23010KT P6SM -RA BKN050
     FM300800 23008KT P6SM -SHRA OVC030
     FM301000 24008KT P6SM -SHRA OVC015
     FM301300 27009KT P6SM BKN018
     FM301500 29010KT P6SM BKN020
     FM302000 29013G20KT P6SM SCT035
     FM302200 29011G17KT P6SM SKC=



000
FTUS41 KRLX 291900 AAA
TAFBKW
TAF AMD
KBKW 291957Z 2920/3018 22008KT P6SM SKC
     FM292100 22008KT P6SM SCT200
     FM300300 18007G18KT P6SM BKN110
     FM300800 23012G22KT 4SM -SHRA BR BKN025
     FM301000 25009G20KT 4SM -SHRA BR BKN008
     FM301300 28010G22KT 5SM -SHRA BR BKN020
     FM301500 29012G20KT P6SM SCT030=



000
FTUS41 KRLX 291900 AAA
TAFBKW
TAF AMD
KBKW 291957Z 2920/3018 22008KT P6SM SKC
     FM292100 22008KT P6SM SCT200
     FM300300 18007G18KT P6SM BKN110
     FM300800 23012G22KT 4SM -SHRA BR BKN025
     FM301000 25009G20KT 4SM -SHRA BR BKN008
     FM301300 28010G22KT 5SM -SHRA BR BKN020
     FM301500 29012G20KT P6SM SCT030=



000
FTUS41 KRLX 291900 AAA
TAFHTS
TAF AMD
KHTS 291956Z 2920/3018 20008KT P6SM SCT200
     FM300400 21008KT 6SM -SHRA BR BKN035 OVC060
     FM300800 24009G20KT 4SM -SHRA BR BKN025 OVC040
     FM301100 26005KT P6SM BKN020
     FM301400 27007KT P6SM FEW035=



000
FTUS41 KRLX 291700
TAFBKW
TAF
KBKW 291723Z 2918/3018 23004KT P6SM SKC
     FM292100 22005KT P6SM SCT200
     FM300300 18007G18KT P6SM BKN110
     FM300800 23012G22KT 4SM -SHRA BR BKN025
     FM301000 25009G20KT 4SM -SHRA BR BKN008
     FM301300 28010G22KT 5SM -SHRA BR BKN020
     FM301500 29012G20KT P6SM SCT030=



000
FTUS41 KRLX 291700
TAFCRW
TAF
KCRW 291723Z 2918/3018 21006KT P6SM FEW200
     FM300000 VRB03KT P6SM BKN110
     FM300400 19005KT P6SM BKN070
     FM300600 20007G19KT 5SM -SHRA BR BKN045
     FM300900 24009G20KT 4SM -SHRA BR SCT015 BKN025
     FM301100 26006KT P6SM BKN020
     FM301500 27009G14KT P6SM SCT030=



000
FTUS41 KRLX 291700
TAFCKB
TAF
KCKB 291723Z 2918/3018 23005KT P6SM FEW250
     FM300400 20006KT P6SM BKN080
     FM300600 21011G17KT 4SM -SHRA BR OVC015
     FM301300 25010G18KT 6SM -RA BR BKN025
     FM301500 25011G19KT P6SM SCT030=



000
FTUS41 KRLX 291700
TAFEKN
TAF
KEKN 291723Z 2918/3018 VRB03KT P6SM SKC
     FM292100 24008KT P6SM SCT200
     FM300000 17005KT P6SM BKN150
     FM300700 20008KT 6SM -SHRASN BR OVC015
     FM300900 24011G17KT 4SM -SHSN BR SCT002 BKN015
     FM301300 27013G23KT 6SM BR BKN020
     FM301600 27014G23KT P6SM SCT020=



000
FTUS41 KRLX 291700
TAFHTS
TAF
KHTS 291723Z 2918/3018 20007KT P6SM SCT200
     FM300400 21008KT 6SM -SHRA BR BKN035 OVC060
     FM300800 24009G20KT 4SM -SHRA BR BKN025 OVC040
     FM301100 26005KT P6SM BKN020
     FM301400 27007KT P6SM FEW035=



000
FTUS41 KRLX 291700
TAFPKB
TAF
KPKB 291723Z 2918/3018 19008KT P6SM SCT200
     FM300400 19009KT 6SM -SHRA BR BKN080
     FM300600 23010G20KT 4SM -SHRA BR BKN018 OVC035
     FM301000 25007KT 6SM BR BKN020 OVC050
     FM301300 25005KT P6SM SCT020
     FM301500 27009G14KT P6SM SCT025=



000
FTUS41 KRLX 291700
TAFEKN
TAF
KEKN 291723Z 2918/3018 VRB03KT P6SM SKC
     FM292100 24008KT P6SM SCT200
     FM300000 17005KT P6SM BKN150
     FM300700 20008KT 6SM -SHRASN BR OVC015
     FM300900 24011G17KT 4SM -SHSN BR SCT002 BKN015
     FM301300 27013G23KT 6SM BR BKN020
     FM301600 27014G23KT P6SM SCT020=



000
FTUS41 KRLX 291700
TAFPKB
TAF
KPKB 291723Z 2918/3018 19008KT P6SM SCT200
     FM300400 19009KT 6SM -SHRA BR BKN080
     FM300600 23010G20KT 4SM -SHRA BR BKN018 OVC035
     FM301000 25007KT 6SM BR BKN020 OVC050
     FM301300 25005KT P6SM SCT020
     FM301500 27009G14KT P6SM SCT025=



000
FTUS41 KRLX 291700
TAFCKB
TAF
KCKB 291723Z 2918/3018 23005KT P6SM FEW250
     FM300400 20006KT P6SM BKN080
     FM300600 21011G17KT 4SM -SHRA BR OVC015
     FM301300 25010G18KT 6SM -RA BR BKN025
     FM301500 25011G19KT P6SM SCT030=



000
FTUS41 KRLX 291700
TAFBKW
TAF
KBKW 291723Z 2918/3018 23004KT P6SM SKC
     FM292100 22005KT P6SM SCT200
     FM300300 18007G18KT P6SM BKN110
     FM300800 23012G22KT 4SM -SHRA BR BKN025
     FM301000 25009G20KT 4SM -SHRA BR BKN008
     FM301300 28010G22KT 5SM -SHRA BR BKN020
     FM301500 29012G20KT P6SM SCT030=



000
FTUS41 KRLX 291700
TAFHTS
TAF
KHTS 291723Z 2918/3018 20007KT P6SM SCT200
     FM300400 21008KT 6SM -SHRA BR BKN035 OVC060
     FM300800 24009G20KT 4SM -SHRA BR BKN025 OVC040
     FM301100 26005KT P6SM BKN020
     FM301400 27007KT P6SM FEW035=



000
FTUS41 KRLX 291700
TAFCRW
TAF
KCRW 291723Z 2918/3018 21006KT P6SM FEW200
     FM300000 VRB03KT P6SM BKN110
     FM300400 19005KT P6SM BKN070
     FM300600 20007G19KT 5SM -SHRA BR BKN045
     FM300900 24009G20KT 4SM -SHRA BR SCT015 BKN025
     FM301100 26006KT P6SM BKN020
     FM301500 27009G14KT P6SM SCT030=



000
FTUS41 KRLX 291100
TAFBKW
TAF
KBKW 291140Z 2912/3012 00000KT P6SM SKC
     FM292100 22010G15KT P6SM BKN200
     FM300300 18008KT P6SM BKN100
     FM300600 19010G15KT 4SM -SHRA BR OVC015
     FM301100 27009KT 5SM -SHRA BR BKN020=



000
FTUS41 KRLX 291100
TAFCKB
TAF
KCKB 291140Z 2912/3012 00000KT P6SM SKC
     FM291900 23006KT P6SM SCT250
     FM300400 20006KT P6SM BKN025
     FM300500 21009KT 5SM BR BKN020
     FM300600 21011G17KT 5SM -SHRA BR OVC020
     FM301100 25010KT 6SM -SHRA BR BKN020=



000
FTUS41 KRLX 291100
TAFEKN
TAF
KEKN 291140Z 2912/3012 00000KT P6SM SCT250
     FM291800 19006KT P6SM BKN200
     FM300400 19007KT P6SM BKN045
     FM300500 20007KT 6SM -SHRA BKN020
     FM300700 20008KT 5SM -SHRA BR OVC020=



000
FTUS41 KRLX 291100
TAFEKN
TAF
KEKN 291140Z 2912/3012 00000KT P6SM SCT250
     FM291800 19006KT P6SM BKN200
     FM300400 19007KT P6SM BKN045
     FM300500 20007KT 6SM -SHRA BKN020
     FM300700 20008KT 5SM -SHRA BR OVC020=



000
FTUS41 KRLX 291100
TAFHTS
TAF
KHTS 291140Z 2912/3012 VRB03KT P6SM SKC
     FM291700 18007KT P6SM BKN250
     FM292300 19007KT P6SM BKN100
     FM300500 22009KT 6SM -SHRA BKN020
     FM301000 25009KT P6SM BKN020=



000
FTUS41 KRLX 291100
TAFCRW
TAF
KCRW 291140Z 2912/3012 VRB03KT P6SM SKC
     FM291900 21007KT P6SM SCT200
     FM300400 19007KT P6SM BKN030
     FM300500 20007KT 6SM -SHRA BKN020=



000
FTUS41 KRLX 291100
TAFBKW
TAF
KBKW 291140Z 2912/3012 00000KT P6SM SKC
     FM292100 22010G15KT P6SM BKN200
     FM300300 18008KT P6SM BKN100
     FM300600 19010G15KT 4SM -SHRA BR OVC015
     FM301100 27009KT 5SM -SHRA BR BKN020=



000
FTUS41 KRLX 291100
TAFPKB
TAF
KPKB 291140Z 2912/3012 VRB03KT P6SM SKC
     FM291700 18007KT P6SM SCT250
     FM292100 19011G16KT P6SM BKN150
     FM300500 20009KT 6SM -SHRA BKN025=



000
FTUS41 KRLX 291100
TAFCKB
TAF
KCKB 291140Z 2912/3012 00000KT P6SM SKC
     FM291900 23006KT P6SM SCT250
     FM300400 20006KT P6SM BKN025
     FM300500 21009KT 5SM BR BKN020
     FM300600 21011G17KT 5SM -SHRA BR OVC020
     FM301100 25010KT 6SM -SHRA BR BKN020=



000
FTUS41 KRLX 291100
TAFHTS
TAF
KHTS 291140Z 2912/3012 VRB03KT P6SM SKC
     FM291700 18007KT P6SM BKN250
     FM292300 19007KT P6SM BKN100
     FM300500 22009KT 6SM -SHRA BKN020
     FM301000 25009KT P6SM BKN020=



000
FTUS41 KRLX 291100
TAFPKB
TAF
KPKB 291140Z 2912/3012 VRB03KT P6SM SKC
     FM291700 18007KT P6SM SCT250
     FM292100 19011G16KT P6SM BKN150
     FM300500 20009KT 6SM -SHRA BKN025=



000
FTUS41 KRLX 291100
TAFCRW
TAF
KCRW 291140Z 2912/3012 VRB03KT P6SM SKC
     FM291900 21007KT P6SM SCT200
     FM300400 19007KT P6SM BKN030
     FM300500 20007KT 6SM -SHRA BKN020=



000
FTUS41 KRLX 290800 AAA
TAFCRW
TAF AMD
KCRW 290835Z 2909/3006 00000KT P6SM SKC
     FM291800 21006KT P6SM SCT200
     FM300300 20007KT P6SM -SHRA BKN070
     FM300500 22008KT 6SM -SHRA BR BKN020=



000
FTUS41 KRLX 290800 AAA
TAFBKW
TAF AMD
KBKW 290835Z 2909/3006 VRB03KT P6SM SKC
     FM291900 22007KT P6SM SCT200
     FM300000 18007KT P6SM BKN120
     FM300500 21009KT 5SM -SHRA BR BKN020=



000
FTUS41 KRLX 290800 AAA
TAFEKN
TAF AMD
KEKN 290835Z 2909/3006 00000KT P6SM SKC
     FM292000 24007KT P6SM SCT250
     FM300000 18005KT P6SM BKN150
     FM300500 21009KT 6SM -SHRA BR BKN020=



000
FTUS41 KRLX 290800 AAA
TAFPKB
TAF AMD
KPKB 290835Z 2909/3006 00000KT P6SM SKC
     FM291800 19010G17KT P6SM BKN200
     FM292300 19006KT P6SM BKN110
     FM300300 22009KT 6SM -SHRA BKN025=



000
FTUS41 KRLX 290800 AAA
TAFCRW
TAF AMD
KCRW 290835Z 2909/3006 00000KT P6SM SKC
     FM291800 21006KT P6SM SCT200
     FM300300 20007KT P6SM -SHRA BKN070
     FM300500 22008KT 6SM -SHRA BR BKN020=



000
FTUS41 KRLX 290800 AAA
TAFPKB
TAF AMD
KPKB 290835Z 2909/3006 00000KT P6SM SKC
     FM291800 19010G17KT P6SM BKN200
     FM292300 19006KT P6SM BKN110
     FM300300 22009KT 6SM -SHRA BKN025=



000
FTUS41 KRLX 290800 AAA
TAFBKW
TAF AMD
KBKW 290835Z 2909/3006 VRB03KT P6SM SKC
     FM291900 22007KT P6SM SCT200
     FM300000 18007KT P6SM BKN120
     FM300500 21009KT 5SM -SHRA BR BKN020=



000
FTUS41 KRLX 290800 AAA
TAFHTS
TAF AMD
KHTS 290835Z 2909/3006 00000KT P6SM SKC
     FM292000 21010G17KT P6SM BKN150
     FM292300 19006KT P6SM BKN100
     FM300300 21009KT 6SM -SHRA BKN020=



000
FTUS41 KRLX 290800 AAA
TAFCKB
TAF AMD
KCKB 290835Z 2909/3006 00000KT P6SM SKC
     FM291800 22006KT P6SM SCT250
     FM300400 20008KT P6SM BKN025
     FM300500 21009KT 5SM -SHRA BR BKN020=



000
FTUS41 KRLX 290800 AAA
TAFEKN
TAF AMD
KEKN 290835Z 2909/3006 00000KT P6SM SKC
     FM292000 24007KT P6SM SCT250
     FM300000 18005KT P6SM BKN150
     FM300500 21009KT 6SM -SHRA BR BKN020=



000
FTUS41 KRLX 290800 AAA
TAFHTS
TAF AMD
KHTS 290835Z 2909/3006 00000KT P6SM SKC
     FM292000 21010G17KT P6SM BKN150
     FM292300 19006KT P6SM BKN100
     FM300300 21009KT 6SM -SHRA BKN020=



000
FTUS41 KRLX 290800 AAA
TAFCKB
TAF AMD
KCKB 290835Z 2909/3006 00000KT P6SM SKC
     FM291800 22006KT P6SM SCT250
     FM300400 20008KT P6SM BKN025
     FM300500 21009KT 5SM -SHRA BR BKN020=



000
FTUS41 KRLX 290500
TAFPKB
TAF
KPKB 290520Z 2906/3006 00000KT P6SM SKC
     FM291800 19010G17KT P6SM BKN200
     FM292300 19006KT P6SM BKN110
     FM300300 22009KT 6SM -SHRA BKN025=



000
FTUS41 KRLX 290500
TAFCKB
TAF
KCKB 290520Z 2906/3006 00000KT P6SM SKC
     FM291800 22006KT P6SM SCT250
     FM300400 20008KT P6SM BKN025
     FM300500 21009KT 5SM -SHRA BR BKN020=



000
FTUS41 KRLX 290500
TAFHTS
TAF
KHTS 290520Z 2906/3006 00000KT P6SM SKC
     FM292000 21010G17KT P6SM BKN150
     FM292300 19006KT P6SM BKN100
     FM300300 23009KT 6SM -SHRA BKN020=



000
FTUS41 KRLX 290500
TAFBKW
TAF
KBKW 290520Z 2906/3006 VRB03KT P6SM SKC
     FM291900 22007KT P6SM SCT200
     FM300000 18007KT P6SM BKN120
     FM300500 21009KT 5SM -SHRA BR BKN020=



000
FTUS41 KRLX 290500
TAFEKN
TAF
KEKN 290520Z 2906/3006 00000KT P6SM SKC
     FM292000 24007KT P6SM SCT250
     FM300000 18005KT P6SM BKN150
     FM300500 23009KT 6SM -SHRA BR BKN020=



000
FTUS41 KRLX 290500
TAFCRW
TAF
KCRW 290520Z 2906/3006 00000KT P6SM SKC
     FM291800 21006KT P6SM SCT200
     FM300300 20007KT P6SM -SHRA BKN070
     FM300500 22008KT 6SM -SHRA BR BKN020=



000
FTUS41 KRLX 290500
TAFCKB
TAF
KCKB 290520Z 2906/3006 00000KT P6SM SKC
     FM291800 22006KT P6SM SCT250
     FM300400 20008KT P6SM BKN025
     FM300500 21009KT 5SM -SHRA BR BKN020=



000
FTUS41 KRLX 290500
TAFCRW
TAF
KCRW 290520Z 2906/3006 00000KT P6SM SKC
     FM291800 21006KT P6SM SCT200
     FM300300 20007KT P6SM -SHRA BKN070
     FM300500 22008KT 6SM -SHRA BR BKN020=



000
FTUS41 KRLX 290500
TAFEKN
TAF
KEKN 290520Z 2906/3006 00000KT P6SM SKC
     FM292000 24007KT P6SM SCT250
     FM300000 18005KT P6SM BKN150
     FM300500 23009KT 6SM -SHRA BR BKN020=



000
FTUS41 KRLX 290500
TAFHTS
TAF
KHTS 290520Z 2906/3006 00000KT P6SM SKC
     FM292000 21010G17KT P6SM BKN150
     FM292300 19006KT P6SM BKN100
     FM300300 23009KT 6SM -SHRA BKN020=



000
FTUS41 KRLX 290500
TAFBKW
TAF
KBKW 290520Z 2906/3006 VRB03KT P6SM SKC
     FM291900 22007KT P6SM SCT200
     FM300000 18007KT P6SM BKN120
     FM300500 21009KT 5SM -SHRA BR BKN020=



000
FTUS41 KRLX 290500
TAFPKB
TAF
KPKB 290520Z 2906/3006 00000KT P6SM SKC
     FM291800 19010G17KT P6SM BKN200
     FM292300 19006KT P6SM BKN110
     FM300300 22009KT 6SM -SHRA BKN025=



000
FTUS41 KRLX 282300
TAFCKB
TAF
KCKB 282331Z 2900/2924 30006KT P6SM SCT060
     FM290100 30005KT P6SM SKC
     FM290600 00000KT P6SM SKC
     FM291800 22006KT P6SM SCT250=



000
FTUS41 KRLX 282300
TAFBKW
TAF
KBKW 282331Z 2900/2924 32008KT P6SM SKC
     FM290700 00000KT P6SM SKC
     FM291600 25004KT P6SM SCT250
     FM292000 22008KT P6SM SCT250=



000
FTUS41 KRLX 282300
TAFPKB
TAF
KPKB 282331Z 2900/2924 32005KT P6SM SKC
     FM290400 00000KT P6SM SKC
     FM291700 19006KT P6SM SCT250
     FM292000 19010G17KT P6SM BKN210
     FM292300 19006KT P6SM BKN120=



000
FTUS41 KRLX 282300
TAFHTS
TAF
KHTS 282331Z 2900/2924 32004KT P6SM SKC
     FM290200 00000KT P6SM SKC
     FM291700 19006KT P6SM BKN250
     FM292100 21010G17KT P6SM BKN150
     FM292300 19006KT P6SM BKN110=



000
FTUS41 KRLX 282300
TAFPKB
TAF
KPKB 282331Z 2900/2924 32005KT P6SM SKC
     FM290400 00000KT P6SM SKC
     FM291700 19006KT P6SM SCT250
     FM292000 19010G17KT P6SM BKN210
     FM292300 19006KT P6SM BKN120=



000
FTUS41 KRLX 282300
TAFHTS
TAF
KHTS 282331Z 2900/2924 32004KT P6SM SKC
     FM290200 00000KT P6SM SKC
     FM291700 19006KT P6SM BKN250
     FM292100 21010G17KT P6SM BKN150
     FM292300 19006KT P6SM BKN110=



000
FTUS41 KRLX 282300
TAFEKN
TAF
KEKN 282331Z 2900/2924 30007KT P6SM BKN040
     FM290200 31003KT P6SM SCT050
     FM290300 00000KT P6SM SKC
     FM291900 26005KT P6SM SCT240=



000
FTUS41 KRLX 282300
TAFCKB
TAF
KCKB 282331Z 2900/2924 30006KT P6SM SCT060
     FM290100 30005KT P6SM SKC
     FM290600 00000KT P6SM SKC
     FM291800 22006KT P6SM SCT250=



000
FTUS41 KRLX 282300
TAFEKN
TAF
KEKN 282331Z 2900/2924 30007KT P6SM BKN040
     FM290200 31003KT P6SM SCT050
     FM290300 00000KT P6SM SKC
     FM291900 26005KT P6SM SCT240=



000
FTUS41 KRLX 282300
TAFBKW
TAF
KBKW 282331Z 2900/2924 32008KT P6SM SKC
     FM290700 00000KT P6SM SKC
     FM291600 25004KT P6SM SCT250
     FM292000 22008KT P6SM SCT250=



000
FTUS41 KRLX 282300
TAFCRW
TAF
KCRW 282331Z 2900/2924 31007KT P6SM SKC
     FM290200 00000KT P6SM SKC
     FM291800 21006KT P6SM SCT250=



000
FTUS41 KRLX 282300
TAFCRW
TAF
KCRW 282331Z 2900/2924 31007KT P6SM SKC
     FM290200 00000KT P6SM SKC
     FM291800 21006KT P6SM SCT250=



000
FTUS41 KRLX 282200 AAB
TAFEKN
TAF AMD
KEKN 282209Z 2822/2918 30010KT P6SM -SN BKN035
     FM290000 30008KT P6SM SCT030
     FM290100 31006KT P6SM SKC
     FM290800 00000KT P6SM SKC=



000
FTUS41 KRLX 282200 AAB
TAFBKW
TAF AMD
KBKW 282209Z 2822/2918 31009KT P6SM SKC
     FM282300 32005KT P6SM SKC
     FM291500 20004KT P6SM SCT250=



000
FTUS41 KRLX 282200 AAB
TAFPKB
TAF AMD
KPKB 282208Z 2822/2918 31008KT P6SM SCT050
     FM282300 32006KT P6SM SKC
     FM290300 VRB03KT P6SM SKC
     FM291500 19005KT P6SM SKC=



000
FTUS41 KRLX 282200 AAA
TAFCKB
TAF AMD
KCKB 282207Z 2822/2918 30007KT P6SM BKN060
     FM282300 30007KT P6SM SCT060
     FM290000 31006KT P6SM SKC
     FM291600 20004KT P6SM SCT250=



000
FTUS41 KRLX 281900 AAA
TAFEKN
TAF AMD
KEKN 281912Z 2819/2918 30010G18KT P6SM -SN BKN035
     FM282200 30008KT P6SM SCT030
     FM290200 31006KT P6SM FEW200
     FM290800 00000KT P6SM SKC=



000
FTUS41 KRLX 281900 AAA
TAFEKN
TAF AMD
KEKN 281912Z 2819/2918 30010G18KT P6SM -SN BKN035
     FM282200 30008KT P6SM SCT030
     FM290200 31006KT P6SM FEW200
     FM290800 00000KT P6SM SKC=



000
FTUS41 KRLX 281900 AAA
TAFBKW
TAF AMD
KBKW 281911Z 2819/2918 30011G20KT P6SM BKN045
     FM282100 31009KT P6SM SCT050
     FM282300 32005KT P6SM SKC
     FM291500 20004KT P6SM SCT250=



000
FTUS41 KRLX 281900 AAA
TAFBKW
TAF AMD
KBKW 281911Z 2819/2918 30011G20KT P6SM BKN045
     FM282100 31009KT P6SM SCT050
     FM282300 32005KT P6SM SKC
     FM291500 20004KT P6SM SCT250=



000
FTUS41 KRLX 281900 AAA
TAFCRW
TAF AMD
KCRW 281909Z 2819/2918 32008KT P6SM SCT050
     FM282100 31006KT P6SM SKC
     FM290300 00000KT P6SM SKC
     FM291600 20004KT P6SM FEW250=



000
FTUS41 KRLX 281900 AAA
TAFPKB
TAF AMD
KPKB 281908Z 2819/2918 30009KT P6SM BKN045
     FM282100 31008KT P6SM SCT050
     FM290300 VRB03KT P6SM SKC
     FM291500 19005KT P6SM SKC=



000
FTUS41 KRLX 281900 AAA
TAFPKB
TAF AMD
KPKB 281908Z 2819/2918 30009KT P6SM BKN045
     FM282100 31008KT P6SM SCT050
     FM290300 VRB03KT P6SM SKC
     FM291500 19005KT P6SM SKC=



000
FTUS41 KRLX 281700
TAFHTS
TAF
KHTS 281738Z 2818/2918 35008KT P6SM SCT040
     FM282200 32006KT P6SM FEW150
     FM290400 00000KT P6SM SKC
     FM291700 19006KT P6SM BKN250=



000
FTUS41 KRLX 281700
TAFCKB
TAF
KCKB 281738Z 2818/2918 32010G15KT P6SM OVC045
     FM282200 30008KT P6SM FEW050
     FM290200 33004KT P6SM SKC
     FM291600 20004KT P6SM SCT250=



000
FTUS41 KRLX 281700
TAFBKW
TAF
KBKW 281738Z 2818/2918 34011G20KT 6SM BR SCT025 OVC035
     FM282200 32009KT P6SM SCT030
     FM290000 32005KT P6SM FEW250
     FM291500 20004KT P6SM SCT250=



000
FTUS41 KRLX 281700
TAFEKN
TAF
KEKN 281738Z 2818/2918 32010G18KT 6SM BR BKN035
     FM282200 30008KT P6SM SCT030
     FM290200 31006KT P6SM FEW200
     FM290800 00000KT P6SM SKC=



000
FTUS41 KRLX 281700
TAFEKN
TAF
KEKN 281738Z 2818/2918 32010G18KT 6SM BR BKN035
     FM282200 30008KT P6SM SCT030
     FM290200 31006KT P6SM FEW200
     FM290800 00000KT P6SM SKC=



000
FTUS41 KRLX 281700
TAFHTS
TAF
KHTS 281738Z 2818/2918 35008KT P6SM SCT040
     FM282200 32006KT P6SM FEW150
     FM290400 00000KT P6SM SKC
     FM291700 19006KT P6SM BKN250=



000
FTUS41 KRLX 281700
TAFPKB
TAF
KPKB 281738Z 2818/2918 33010G15KT P6SM BKN030
     FM282100 31008KT P6SM SCT050
     FM290300 VRB03KT P6SM SKC
     FM291500 19005KT P6SM SKC=



000
FTUS41 KRLX 281700
TAFCKB
TAF
KCKB 281738Z 2818/2918 32010G15KT P6SM OVC045
     FM282200 30008KT P6SM FEW050
     FM290200 33004KT P6SM SKC
     FM291600 20004KT P6SM SCT250=



000
FTUS41 KRLX 281700
TAFCRW
TAF
KCRW 281738Z 2818/2918 35008G18KT P6SM BKN045
     FM282200 31006KT P6SM FEW050
     FM290300 00000KT P6SM SKC
     FM291600 20004KT P6SM FEW250=



000
FTUS41 KRLX 281700
TAFCRW
TAF
KCRW 281738Z 2818/2918 35008G18KT P6SM BKN045
     FM282200 31006KT P6SM FEW050
     FM290300 00000KT P6SM SKC
     FM291600 20004KT P6SM FEW250=



000
FTUS41 KRLX 281700
TAFPKB
TAF
KPKB 281738Z 2818/2918 33010G15KT P6SM BKN030
     FM282100 31008KT P6SM SCT050
     FM290300 VRB03KT P6SM SKC
     FM291500 19005KT P6SM SKC=



000
FTUS41 KRLX 281700
TAFBKW
TAF
KBKW 281738Z 2818/2918 34011G20KT 6SM BR SCT025 OVC035
     FM282200 32009KT P6SM SCT030
     FM290000 32005KT P6SM FEW250
     FM291500 20004KT P6SM SCT250=



    US Dept of Commerce
    National Oceanic and Atmospheric Administration
    National Weather Service
    1325 East West Highway
    Silver Spring, MD 20910
    Page Author: NWS Internet Services Team
Disclaimer
Information Quality
Credits
Glossary
Privacy Policy
Freedom of Information Act (FOIA)
About Us
Career Opportunities